sensor_id;sensor_type;location;lat;lon;timestamp;P1;durP1;ratioP1;P2;durP2;ratioP2
78873;SDS011;68250;43.514;1.494;2023-04-15T00:00:36;22.83;;;2.88;;
78873;SDS011;68250;43.514;1.494;2023-04-15T00:03:02;28.50;;;2.80;;
78873;SDS011;68250;43.514;1.494;2023-04-15T00:05:29;25.63;;;3.65;;
78873;SDS011;68250;43.514;1.494;2023-04-15T00:07:55;22.23;;;3.43;;
78873;SDS011;68250;43.514;1.494;2023-04-15T00:10:23;28.85;;;3.28;;
78873;SDS011;68250;43.514;1.494;2023-04-15T00:12:49;24.65;;;3.53;;
78873;SDS011;68250;43.514;1.494;2023-04-15T00:15:15;24.40;;;2.60;;
78873;SDS011;68250;43.514;1.494;2023-04-15T00:17:40;24.17;;;3.90;;
78873;SDS011;68250;43.514;1.494;2023-04-15T00:20:06;25.13;;;2.83;;
78873;SDS011;68250;43.514;1.494;2023-04-15T00:22:32;28.90;;;3.50;;
78873;SDS011;68250;43.514;1.494;2023-04-15T00:24:57;28.42;;;3.33;;
78873;SDS011;68250;43.514;1.494;2023-04-15T00:27:23;22.05;;;3.05;;
78873;SDS011;68250;43.514;1.494;2023-04-15T00:29:48;25.50;;;2.97;;
78873;SDS011;68250;43.514;1.494;2023-04-15T00:32:14;26.52;;;3.30;;
78873;SDS011;68250;43.514;1.494;2023-04-15T00:34:40;23.83;;;4.10;;
78873;SDS011;68250;43.514;1.494;2023-04-15T00:37:05;27.15;;;3.42;;
78873;SDS011;68250;43.514;1.494;2023-04-15T00:39:31;24.57;;;3.63;;
78873;SDS011;68250;43.514;1.494;2023-04-15T00:41:56;22.80;;;3.10;;
78873;SDS011;68250;43.514;1.494;2023-04-15T00:44:22;21.52;;;3.35;;
78873;SDS011;68250;43.514;1.494;2023-04-15T00:46:49;24.83;;;3.27;;
78873;SDS011;68250;43.514;1.494;2023-04-15T00:49:16;24.65;;;2.90;;
78873;SDS011;68250;43.514;1.494;2023-04-15T00:51:44;26.45;;;3.53;;
78873;SDS011;68250;43.514;1.494;2023-04-15T00:54:10;27.23;;;3.57;;
78873;SDS011;68250;43.514;1.494;2023-04-15T00:56:36;22.05;;;2.63;;
78873;SDS011;68250;43.514;1.494;2023-04-15T00:59:03;24.42;;;2.83;;
78873;SDS011;68250;43.514;1.494;2023-04-15T01:01:30;23.75;;;3.17;;
78873;SDS011;68250;43.514;1.494;2023-04-15T01:03:57;22.75;;;3.83;;
78873;SDS011;68250;43.514;1.494;2023-04-15T01:06:23;28.77;;;3.13;;
78873;SDS011;68250;43.514;1.494;2023-04-15T01:08:48;24.07;;;3.33;;
78873;SDS011;68250;43.514;1.494;2023-04-15T01:11:14;26.85;;;3.17;;
78873;SDS011;68250;43.514;1.494;2023-04-15T01:13:40;22.77;;;3.63;;
78873;SDS011;68250;43.514;1.494;2023-04-15T01:16:07;27.23;;;3.78;;
78873;SDS011;68250;43.514;1.494;2023-04-15T01:18:33;27.05;;;3.63;;
78873;SDS011;68250;43.514;1.494;2023-04-15T01:21:00;30.92;;;3.85;;
78873;SDS011;68250;43.514;1.494;2023-04-15T01:23:28;26.63;;;3.30;;
78873;SDS011;68250;43.514;1.494;2023-04-15T01:25:53;31.90;;;4.00;;
78873;SDS011;68250;43.514;1.494;2023-04-15T01:28:20;25.83;;;2.97;;
78873;SDS011;68250;43.514;1.494;2023-04-15T01:30:46;22.98;;;3.33;;
78873;SDS011;68250;43.514;1.494;2023-04-15T01:33:11;24.55;;;3.10;;
78873;SDS011;68250;43.514;1.494;2023-04-15T01:35:37;27.85;;;3.50;;
78873;SDS011;68250;43.514;1.494;2023-04-15T01:38:08;22.45;;;3.15;;
78873;SDS011;68250;43.514;1.494;2023-04-15T01:40:34;25.20;;;2.90;;
78873;SDS011;68250;43.514;1.494;2023-04-15T01:43:00;16.40;;;2.37;;
78873;SDS011;68250;43.514;1.494;2023-04-15T01:45:26;27.45;;;2.58;;
78873;SDS011;68250;43.514;1.494;2023-04-15T01:47:52;23.55;;;2.60;;
78873;SDS011;68250;43.514;1.494;2023-04-15T01:50:18;23.37;;;2.47;;
78873;SDS011;68250;43.514;1.494;2023-04-15T01:52:44;24.05;;;2.53;;
78873;SDS011;68250;43.514;1.494;2023-04-15T01:55:11;19.38;;;3.30;;
78873;SDS011;68250;43.514;1.494;2023-04-15T01:57:37;20.10;;;2.75;;
78873;SDS011;68250;43.514;1.494;2023-04-15T02:00:03;19.13;;;2.77;;
78873;SDS011;68250;43.514;1.494;2023-04-15T02:02:29;22.95;;;2.78;;
78873;SDS011;68250;43.514;1.494;2023-04-15T02:04:54;20.35;;;2.60;;
78873;SDS011;68250;43.514;1.494;2023-04-15T02:07:20;22.70;;;2.70;;
78873;SDS011;68250;43.514;1.494;2023-04-15T02:09:46;24.63;;;2.60;;
78873;SDS011;68250;43.514;1.494;2023-04-15T02:12:11;23.17;;;2.80;;
78873;SDS011;68250;43.514;1.494;2023-04-15T02:14:37;24.02;;;2.45;;
78873;SDS011;68250;43.514;1.494;2023-04-15T02:17:03;20.70;;;2.10;;
78873;SDS011;68250;43.514;1.494;2023-04-15T02:19:35;15.52;;;1.88;;
78873;SDS011;68250;43.514;1.494;2023-04-15T02:22:00;13.95;;;1.55;;
78873;SDS011;68250;43.514;1.494;2023-04-15T02:24:26;15.43;;;1.67;;
78873;SDS011;68250;43.514;1.494;2023-04-15T02:26:53;11.45;;;1.25;;
78873;SDS011;68250;43.514;1.494;2023-04-15T02:29:18;13.60;;;1.17;;
78873;SDS011;68250;43.514;1.494;2023-04-15T02:31:44;10.00;;;0.90;;
78873;SDS011;68250;43.514;1.494;2023-04-15T02:34:09;9.27;;;0.97;;
78873;SDS011;68250;43.514;1.494;2023-04-15T02:36:35;9.23;;;1.00;;
78873;SDS011;68250;43.514;1.494;2023-04-15T02:39:01;8.68;;;1.00;;
78873;SDS011;68250;43.514;1.494;2023-04-15T02:41:28;12.40;;;1.40;;
78873;SDS011;68250;43.514;1.494;2023-04-15T02:43:54;10.35;;;1.05;;
78873;SDS011;68250;43.514;1.494;2023-04-15T02:46:19;13.18;;;1.58;;
78873;SDS011;68250;43.514;1.494;2023-04-15T02:48:46;16.87;;;2.33;;
78873;SDS011;68250;43.514;1.494;2023-04-15T02:51:13;16.13;;;1.63;;
78873;SDS011;68250;43.514;1.494;2023-04-15T02:53:43;22.02;;;1.83;;
78873;SDS011;68250;43.514;1.494;2023-04-15T02:56:10;17.95;;;1.80;;
78873;SDS011;68250;43.514;1.494;2023-04-15T02:58:35;22.17;;;2.67;;
78873;SDS011;68250;43.514;1.494;2023-04-15T03:01:01;19.40;;;2.10;;
78873;SDS011;68250;43.514;1.494;2023-04-15T03:03:27;22.60;;;2.67;;
78873;SDS011;68250;43.514;1.494;2023-04-15T03:05:52;21.85;;;2.22;;
78873;SDS011;68250;43.514;1.494;2023-04-15T03:08:18;19.63;;;1.97;;
78873;SDS011;68250;43.514;1.494;2023-04-15T03:10:45;19.42;;;2.10;;
78873;SDS011;68250;43.514;1.494;2023-04-15T03:13:11;16.70;;;1.75;;
78873;SDS011;68250;43.514;1.494;2023-04-15T03:15:37;16.63;;;1.83;;
78873;SDS011;68250;43.514;1.494;2023-04-15T03:18:02;16.65;;;1.50;;
78873;SDS011;68250;43.514;1.494;2023-04-15T03:20:28;14.43;;;2.00;;
78873;SDS011;68250;43.514;1.494;2023-04-15T03:22:53;16.30;;;1.63;;
78873;SDS011;68250;43.514;1.494;2023-04-15T03:25:19;18.23;;;1.77;;
78873;SDS011;68250;43.514;1.494;2023-04-15T03:27:45;18.80;;;2.30;;
78873;SDS011;68250;43.514;1.494;2023-04-15T03:30:10;18.33;;;1.97;;
78873;SDS011;68250;43.514;1.494;2023-04-15T03:32:36;20.20;;;2.10;;
78873;SDS011;68250;43.514;1.494;2023-04-15T03:35:02;19.90;;;2.63;;
78873;SDS011;68250;43.514;1.494;2023-04-15T03:37:27;18.93;;;1.90;;
78873;SDS011;68250;43.514;1.494;2023-04-15T03:39:53;22.63;;;2.80;;
78873;SDS011;68250;43.514;1.494;2023-04-15T03:42:18;15.68;;;2.17;;
78873;SDS011;68250;43.514;1.494;2023-04-15T03:44:44;17.53;;;1.53;;
78873;SDS011;68250;43.514;1.494;2023-04-15T03:47:09;9.37;;;1.60;;
78873;SDS011;68250;43.514;1.494;2023-04-15T03:49:35;14.43;;;1.67;;
78873;SDS011;68250;43.514;1.494;2023-04-15T03:52:01;12.40;;;1.23;;
78873;SDS011;68250;43.514;1.494;2023-04-15T03:54:26;11.38;;;1.20;;
78873;SDS011;68250;43.514;1.494;2023-04-15T03:56:52;11.33;;;1.43;;
78873;SDS011;68250;43.514;1.494;2023-04-15T03:59:18;11.37;;;0.90;;
78873;SDS011;68250;43.514;1.494;2023-04-15T04:01:43;12.02;;;1.20;;
78873;SDS011;68250;43.514;1.494;2023-04-15T04:04:09;12.77;;;1.03;;
78873;SDS011;68250;43.514;1.494;2023-04-15T04:06:34;14.43;;;1.25;;
78873;SDS011;68250;43.514;1.494;2023-04-15T04:09:00;11.43;;;1.37;;
78873;SDS011;68250;43.514;1.494;2023-04-15T04:11:26;13.43;;;1.40;;
78873;SDS011;68250;43.514;1.494;2023-04-15T04:13:52;15.52;;;1.52;;
78873;SDS011;68250;43.514;1.494;2023-04-15T04:16:18;14.45;;;1.38;;
78873;SDS011;68250;43.514;1.494;2023-04-15T04:18:43;11.65;;;1.77;;
78873;SDS011;68250;43.514;1.494;2023-04-15T04:21:09;14.27;;;1.77;;
78873;SDS011;68250;43.514;1.494;2023-04-15T04:23:35;14.70;;;1.37;;
78873;SDS011;68250;43.514;1.494;2023-04-15T04:26:00;13.93;;;1.85;;
78873;SDS011;68250;43.514;1.494;2023-04-15T04:28:26;14.43;;;1.60;;
78873;SDS011;68250;43.514;1.494;2023-04-15T04:30:52;15.93;;;1.88;;
78873;SDS011;68250;43.514;1.494;2023-04-15T04:33:17;17.00;;;1.83;;
78873;SDS011;68250;43.514;1.494;2023-04-15T04:35:43;12.38;;;1.42;;
78873;SDS011;68250;43.514;1.494;2023-04-15T04:38:09;13.93;;;1.40;;
78873;SDS011;68250;43.514;1.494;2023-04-15T04:40:35;16.17;;;1.50;;
78873;SDS011;68250;43.514;1.494;2023-04-15T04:43:00;18.07;;;1.90;;
78873;SDS011;68250;43.514;1.494;2023-04-15T04:45:26;13.15;;;1.80;;
78873;SDS011;68250;43.514;1.494;2023-04-15T04:47:51;14.57;;;1.60;;
78873;SDS011;68250;43.514;1.494;2023-04-15T04:50:17;14.27;;;1.57;;
78873;SDS011;68250;43.514;1.494;2023-04-15T04:52:42;12.80;;;1.40;;
78873;SDS011;68250;43.514;1.494;2023-04-15T04:55:08;15.17;;;1.40;;
78873;SDS011;68250;43.514;1.494;2023-04-15T04:57:33;13.23;;;1.53;;
78873;SDS011;68250;43.514;1.494;2023-04-15T05:00:04;12.45;;;1.88;;
78873;SDS011;68250;43.514;1.494;2023-04-15T05:02:30;17.55;;;1.83;;
78873;SDS011;68250;43.514;1.494;2023-04-15T05:04:56;13.60;;;1.47;;
78873;SDS011;68250;43.514;1.494;2023-04-15T05:07:22;15.60;;;1.70;;
78873;SDS011;68250;43.514;1.494;2023-04-15T05:09:47;16.07;;;1.73;;
78873;SDS011;68250;43.514;1.494;2023-04-15T05:12:13;14.85;;;1.40;;
78873;SDS011;68250;43.514;1.494;2023-04-15T05:14:39;13.97;;;1.70;;
78873;SDS011;68250;43.514;1.494;2023-04-15T05:17:06;12.55;;;1.23;;
78873;SDS011;68250;43.514;1.494;2023-04-15T05:19:32;12.60;;;1.88;;
78873;SDS011;68250;43.514;1.494;2023-04-15T05:21:57;8.60;;;1.40;;
78873;SDS011;68250;43.514;1.494;2023-04-15T05:24:23;11.43;;;1.25;;
78873;SDS011;68250;43.514;1.494;2023-04-15T05:26:49;13.77;;;1.03;;
78873;SDS011;68250;43.514;1.494;2023-04-15T05:29:15;12.85;;;1.35;;
78873;SDS011;68250;43.514;1.494;2023-04-15T05:31:40;10.67;;;1.10;;
78873;SDS011;68250;43.514;1.494;2023-04-15T05:34:06;11.63;;;1.42;;
78873;SDS011;68250;43.514;1.494;2023-04-15T05:36:31;11.97;;;1.10;;
78873;SDS011;68250;43.514;1.494;2023-04-15T05:38:57;12.33;;;1.00;;
78873;SDS011;68250;43.514;1.494;2023-04-15T05:41:22;12.87;;;1.00;;
78873;SDS011;68250;43.514;1.494;2023-04-15T05:43:48;8.73;;;0.98;;
78873;SDS011;68250;43.514;1.494;2023-04-15T05:46:13;8.43;;;0.70;;
78873;SDS011;68250;43.514;1.494;2023-04-15T05:48:39;9.33;;;0.77;;
78873;SDS011;68250;43.514;1.494;2023-04-15T05:51:05;10.27;;;1.30;;
78873;SDS011;68250;43.514;1.494;2023-04-15T05:53:30;9.50;;;0.97;;
78873;SDS011;68250;43.514;1.494;2023-04-15T05:55:56;12.90;;;3.60;;
78873;SDS011;68250;43.514;1.494;2023-04-15T05:58:22;11.77;;;4.07;;
78873;SDS011;68250;43.514;1.494;2023-04-15T06:00:47;12.63;;;1.23;;
78873;SDS011;68250;43.514;1.494;2023-04-15T06:03:13;13.77;;;1.20;;
78873;SDS011;68250;43.514;1.494;2023-04-15T06:05:38;8.97;;;1.07;;
78873;SDS011;68250;43.514;1.494;2023-04-15T06:08:04;9.90;;;1.45;;
78873;SDS011;68250;43.514;1.494;2023-04-15T06:10:30;10.68;;;0.77;;
78873;SDS011;68250;43.514;1.494;2023-04-15T06:13:00;12.83;;;1.10;;
78873;SDS011;68250;43.514;1.494;2023-04-15T06:15:29;19.13;;;6.05;;
78873;SDS011;68250;43.514;1.494;2023-04-15T06:17:54;9.50;;;1.08;;
78873;SDS011;68250;43.514;1.494;2023-04-15T06:20:20;18.90;;;4.90;;
78873;SDS011;68250;43.514;1.494;2023-04-15T06:22:46;12.18;;;2.47;;
78873;SDS011;68250;43.514;1.494;2023-04-15T06:25:11;8.27;;;0.98;;
78873;SDS011;68250;43.514;1.494;2023-04-15T06:27:37;13.63;;;1.50;;
78873;SDS011;68250;43.514;1.494;2023-04-15T06:30:03;10.05;;;1.08;;
78873;SDS011;68250;43.514;1.494;2023-04-15T06:32:29;13.37;;;4.33;;
78873;SDS011;68250;43.514;1.494;2023-04-15T06:34:54;11.73;;;1.42;;
78873;SDS011;68250;43.514;1.494;2023-04-15T06:37:20;9.63;;;2.40;;
78873;SDS011;68250;43.514;1.494;2023-04-15T06:39:46;12.23;;;2.08;;
78873;SDS011;68250;43.514;1.494;2023-04-15T06:42:12;8.47;;;1.77;;
78873;SDS011;68250;43.514;1.494;2023-04-15T06:44:37;9.73;;;1.80;;
78873;SDS011;68250;43.514;1.494;2023-04-15T06:47:03;10.35;;;1.20;;
78873;SDS011;68250;43.514;1.494;2023-04-15T06:49:29;9.88;;;1.55;;
78873;SDS011;68250;43.514;1.494;2023-04-15T06:51:54;12.20;;;1.30;;
78873;SDS011;68250;43.514;1.494;2023-04-15T06:54:20;10.98;;;1.20;;
78873;SDS011;68250;43.514;1.494;2023-04-15T06:56:46;13.00;;;2.53;;
78873;SDS011;68250;43.514;1.494;2023-04-15T06:59:12;11.70;;;2.13;;
78873;SDS011;68250;43.514;1.494;2023-04-15T07:01:39;9.32;;;1.10;;
78873;SDS011;68250;43.514;1.494;2023-04-15T07:04:05;5.63;;;0.60;;
78873;SDS011;68250;43.514;1.494;2023-04-15T07:06:30;5.57;;;0.70;;
78873;SDS011;68250;43.514;1.494;2023-04-15T07:08:57;7.00;;;0.50;;
78873;SDS011;68250;43.514;1.494;2023-04-15T07:11:22;4.47;;;0.50;;
78873;SDS011;68250;43.514;1.494;2023-04-15T07:13:50;3.17;;;0.30;;
78873;SDS011;68250;43.514;1.494;2023-04-15T07:16:15;2.77;;;0.20;;
78873;SDS011;68250;43.514;1.494;2023-04-15T07:18:41;3.20;;;0.23;;
78873;SDS011;68250;43.514;1.494;2023-04-15T07:21:07;2.78;;;0.38;;
78873;SDS011;68250;43.514;1.494;2023-04-15T07:23:33;2.58;;;0.30;;
78873;SDS011;68250;43.514;1.494;2023-04-15T07:25:58;3.97;;;0.50;;
78873;SDS011;68250;43.514;1.494;2023-04-15T07:28:25;4.93;;;0.90;;
78873;SDS011;68250;43.514;1.494;2023-04-15T07:30:50;4.33;;;0.40;;
78873;SDS011;68250;43.514;1.494;2023-04-15T07:33:16;4.47;;;0.60;;
78873;SDS011;68250;43.514;1.494;2023-04-15T07:35:41;4.47;;;0.70;;
78873;SDS011;68250;43.514;1.494;2023-04-15T07:38:07;3.78;;;0.55;;
78873;SDS011;68250;43.514;1.494;2023-04-15T07:40:33;2.63;;;0.37;;
78873;SDS011;68250;43.514;1.494;2023-04-15T07:42:58;4.43;;;0.57;;
78873;SDS011;68250;43.514;1.494;2023-04-15T07:45:24;7.18;;;0.50;;
78873;SDS011;68250;43.514;1.494;2023-04-15T07:47:49;5.13;;;0.53;;
78873;SDS011;68250;43.514;1.494;2023-04-15T07:50:15;5.75;;;0.40;;
78873;SDS011;68250;43.514;1.494;2023-04-15T07:52:41;3.47;;;0.33;;
78873;SDS011;68250;43.514;1.494;2023-04-15T07:55:08;6.00;;;0.30;;
78873;SDS011;68250;43.514;1.494;2023-04-15T07:57:34;5.38;;;0.50;;
78873;SDS011;68250;43.514;1.494;2023-04-15T08:00:01;7.15;;;0.77;;
78873;SDS011;68250;43.514;1.494;2023-04-15T08:02:29;8.00;;;0.60;;
78873;SDS011;68250;43.514;1.494;2023-04-15T08:04:54;5.27;;;0.77;;
78873;SDS011;68250;43.514;1.494;2023-04-15T08:07:20;4.27;;;0.77;;
78873;SDS011;68250;43.514;1.494;2023-04-15T08:09:46;5.97;;;0.70;;
78873;SDS011;68250;43.514;1.494;2023-04-15T08:12:12;7.80;;;1.02;;
78873;SDS011;68250;43.514;1.494;2023-04-15T08:14:38;10.00;;;0.90;;
78873;SDS011;68250;43.514;1.494;2023-04-15T08:17:04;6.70;;;0.75;;
78873;SDS011;68250;43.514;1.494;2023-04-15T08:19:29;7.80;;;1.00;;
78873;SDS011;68250;43.514;1.494;2023-04-15T08:21:55;9.15;;;1.10;;
78873;SDS011;68250;43.514;1.494;2023-04-15T08:24:21;6.15;;;0.65;;
78873;SDS011;68250;43.514;1.494;2023-04-15T08:26:48;6.95;;;1.30;;
78873;SDS011;68250;43.514;1.494;2023-04-15T08:29:13;6.47;;;0.80;;
78873;SDS011;68250;43.514;1.494;2023-04-15T08:31:39;8.93;;;0.60;;
78873;SDS011;68250;43.514;1.494;2023-04-15T08:34:04;11.65;;;1.05;;
78873;SDS011;68250;43.514;1.494;2023-04-15T08:36:30;9.73;;;0.93;;
78873;SDS011;68250;43.514;1.494;2023-04-15T08:38:56;6.35;;;0.60;;
78873;SDS011;68250;43.514;1.494;2023-04-15T08:41:25;8.10;;;0.90;;
78873;SDS011;68250;43.514;1.494;2023-04-15T08:43:58;7.93;;;0.70;;
78873;SDS011;68250;43.514;1.494;2023-04-15T08:46:26;7.50;;;0.90;;
78873;SDS011;68250;43.514;1.494;2023-04-15T08:48:53;9.47;;;0.90;;
78873;SDS011;68250;43.514;1.494;2023-04-15T08:51:21;7.50;;;0.95;;
78873;SDS011;68250;43.514;1.494;2023-04-15T08:53:46;9.82;;;1.05;;
78873;SDS011;68250;43.514;1.494;2023-04-15T08:56:13;8.10;;;1.03;;
78873;SDS011;68250;43.514;1.494;2023-04-15T08:58:41;5.97;;;1.00;;
78873;SDS011;68250;43.514;1.494;2023-04-15T09:01:10;9.20;;;1.23;;
78873;SDS011;68250;43.514;1.494;2023-04-15T09:03:37;6.32;;;0.65;;
78873;SDS011;68250;43.514;1.494;2023-04-15T09:06:05;7.72;;;0.98;;
78873;SDS011;68250;43.514;1.494;2023-04-15T09:08:31;7.33;;;0.80;;
78873;SDS011;68250;43.514;1.494;2023-04-15T09:10:58;8.57;;;0.95;;
78873;SDS011;68250;43.514;1.494;2023-04-15T09:13:24;7.00;;;0.95;;
78873;SDS011;68250;43.514;1.494;2023-04-15T09:15:50;7.20;;;1.13;;
78873;SDS011;68250;43.514;1.494;2023-04-15T09:18:29;7.18;;;0.80;;
78873;SDS011;68250;43.514;1.494;2023-04-15T09:20:56;6.53;;;0.88;;
78873;SDS011;68250;43.514;1.494;2023-04-15T09:23:29;8.52;;;0.90;;
78873;SDS011;68250;43.514;1.494;2023-04-15T09:25:56;9.00;;;0.93;;
78873;SDS011;68250;43.514;1.494;2023-04-15T09:28:25;9.80;;;0.90;;
78873;SDS011;68250;43.514;1.494;2023-04-15T09:30:57;8.73;;;0.85;;
78873;SDS011;68250;43.514;1.494;2023-04-15T09:33:23;8.82;;;1.48;;
78873;SDS011;68250;43.514;1.494;2023-04-15T09:35:58;12.52;;;1.50;;
78873;SDS011;68250;43.514;1.494;2023-04-15T09:38:29;9.85;;;1.30;;
78873;SDS011;68250;43.514;1.494;2023-04-15T09:40:56;8.55;;;0.90;;
78873;SDS011;68250;43.514;1.494;2023-04-15T09:43:22;6.75;;;0.82;;
78873;SDS011;68250;43.514;1.494;2023-04-15T09:45:53;7.25;;;0.95;;
78873;SDS011;68250;43.514;1.494;2023-04-15T09:50:50;8.63;;;1.15;;
78873;SDS011;68250;43.514;1.494;2023-04-15T09:53:20;6.90;;;1.00;;
78873;SDS011;68250;43.514;1.494;2023-04-15T09:55:51;7.82;;;1.00;;
78873;SDS011;68250;43.514;1.494;2023-04-15T09:58:31;7.82;;;1.00;;
78873;SDS011;68250;43.514;1.494;2023-04-15T10:00:58;8.02;;;1.20;;
78873;SDS011;68250;43.514;1.494;2023-04-15T10:03:25;10.98;;;1.20;;
78873;SDS011;68250;43.514;1.494;2023-04-15T10:05:52;8.02;;;1.20;;
78873;SDS011;68250;43.514;1.494;2023-04-15T10:08:21;7.00;;;0.85;;
78873;SDS011;68250;43.514;1.494;2023-04-15T10:10:49;10.40;;;1.30;;
78873;SDS011;68250;43.514;1.494;2023-04-15T10:13:16;7.32;;;1.23;;
78873;SDS011;68250;43.514;1.494;2023-04-15T10:15:43;9.60;;;1.08;;
78873;SDS011;68250;43.514;1.494;2023-04-15T10:18:12;9.10;;;0.98;;
78873;SDS011;68250;43.514;1.494;2023-04-15T10:20:41;5.80;;;0.75;;
78873;SDS011;68250;43.514;1.494;2023-04-15T10:23:08;5.95;;;0.80;;
78873;SDS011;68250;43.514;1.494;2023-04-15T10:25:33;6.75;;;1.00;;
78873;SDS011;68250;43.514;1.494;2023-04-15T10:27:59;9.55;;;0.88;;
78873;SDS011;68250;43.514;1.494;2023-04-15T10:30:24;9.20;;;1.35;;
78873;SDS011;68250;43.514;1.494;2023-04-15T10:32:50;6.63;;;1.00;;
78873;SDS011;68250;43.514;1.494;2023-04-15T10:35:16;6.47;;;1.15;;
78873;SDS011;68250;43.514;1.494;2023-04-15T10:37:42;6.72;;;1.17;;
78873;SDS011;68250;43.514;1.494;2023-04-15T10:42:50;8.63;;;0.80;;
78873;SDS011;68250;43.514;1.494;2023-04-15T10:45:15;6.37;;;1.00;;
78873;SDS011;68250;43.514;1.494;2023-04-15T10:47:43;9.20;;;0.80;;
78873;SDS011;68250;43.514;1.494;2023-04-15T10:50:08;7.60;;;0.60;;
78873;SDS011;68250;43.514;1.494;2023-04-15T10:52:34;6.05;;;0.82;;
78873;SDS011;68250;43.514;1.494;2023-04-15T10:55:04;8.53;;;1.00;;
78873;SDS011;68250;43.514;1.494;2023-04-15T10:57:41;7.35;;;0.60;;
78873;SDS011;68250;43.514;1.494;2023-04-15T11:02:46;6.30;;;0.90;;
78873;SDS011;68250;43.514;1.494;2023-04-15T11:05:15;6.20;;;0.90;;
78873;SDS011;68250;43.514;1.494;2023-04-15T11:12:55;8.75;;;1.23;;
78873;SDS011;68250;43.514;1.494;2023-04-15T11:15:29;6.47;;;0.85;;
78873;SDS011;68250;43.514;1.494;2023-04-15T11:20:58;5.82;;;0.73;;
78873;SDS011;68250;43.514;1.494;2023-04-15T11:23:29;7.22;;;0.70;;
78873;SDS011;68250;43.514;1.494;2023-04-15T11:25:56;6.90;;;0.70;;
78873;SDS011;68250;43.514;1.494;2023-04-15T11:28:24;6.40;;;0.57;;
78873;SDS011;68250;43.514;1.494;2023-04-15T11:30:51;7.80;;;0.70;;
78873;SDS011;68250;43.514;1.494;2023-04-15T11:33:18;8.10;;;0.80;;
78873;SDS011;68250;43.514;1.494;2023-04-15T11:35:43;4.97;;;0.80;;
78873;SDS011;68250;43.514;1.494;2023-04-15T11:38:10;5.07;;;0.80;;
78873;SDS011;68250;43.514;1.494;2023-04-15T11:40:37;5.28;;;0.73;;
78873;SDS011;68250;43.514;1.494;2023-04-15T11:43:03;6.50;;;0.50;;
78873;SDS011;68250;43.514;1.494;2023-04-15T11:46:01;6.20;;;0.80;;
78873;SDS011;68250;43.514;1.494;2023-04-15T11:48:29;6.88;;;0.88;;
78873;SDS011;68250;43.514;1.494;2023-04-15T11:50:57;6.00;;;0.73;;
78873;SDS011;68250;43.514;1.494;2023-04-15T11:53:24;6.63;;;0.80;;
78873;SDS011;68250;43.514;1.494;2023-04-15T11:56:02;7.70;;;0.70;;
78873;SDS011;68250;43.514;1.494;2023-04-15T11:58:28;6.82;;;0.82;;
78873;SDS011;68250;43.514;1.494;2023-04-15T12:00:57;9.47;;;0.90;;
78873;SDS011;68250;43.514;1.494;2023-04-15T12:03:27;7.15;;;0.70;;
78873;SDS011;68250;43.514;1.494;2023-04-15T12:08:49;7.72;;;0.63;;
78873;SDS011;68250;43.514;1.494;2023-04-15T12:11:43;8.00;;;0.77;;
78873;SDS011;68250;43.514;1.494;2023-04-15T12:14:23;6.63;;;0.68;;
78873;SDS011;68250;43.514;1.494;2023-04-15T12:16:50;5.55;;;0.80;;
78873;SDS011;68250;43.514;1.494;2023-04-15T12:19:23;5.45;;;0.70;;
78873;SDS011;68250;43.514;1.494;2023-04-15T12:21:51;7.25;;;0.90;;
78873;SDS011;68250;43.514;1.494;2023-04-15T12:24:21;7.72;;;0.77;;
78873;SDS011;68250;43.514;1.494;2023-04-15T12:26:48;7.97;;;0.70;;
78873;SDS011;68250;43.514;1.494;2023-04-15T12:29:15;7.05;;;0.65;;
78873;SDS011;68250;43.514;1.494;2023-04-15T12:31:48;5.03;;;0.50;;
78873;SDS011;68250;43.514;1.494;2023-04-15T12:34:15;5.05;;;0.60;;
78873;SDS011;68250;43.514;1.494;2023-04-15T12:36:41;7.23;;;0.70;;
78873;SDS011;68250;43.514;1.494;2023-04-15T12:39:07;4.95;;;0.60;;
78873;SDS011;68250;43.514;1.494;2023-04-15T12:41:33;4.55;;;0.70;;
78873;SDS011;68250;43.514;1.494;2023-04-15T12:43:58;7.33;;;0.70;;
78873;SDS011;68250;43.514;1.494;2023-04-15T12:46:25;4.15;;;0.55;;
78873;SDS011;68250;43.514;1.494;2023-04-15T12:48:51;4.97;;;0.60;;
78873;SDS011;68250;43.514;1.494;2023-04-15T12:51:17;4.22;;;0.50;;
78873;SDS011;68250;43.514;1.494;2023-04-15T12:53:45;4.32;;;0.55;;
78873;SDS011;68250;43.514;1.494;2023-04-15T12:56:11;7.57;;;0.60;;
78873;SDS011;68250;43.514;1.494;2023-04-15T12:58:37;7.40;;;0.80;;
78873;SDS011;68250;43.514;1.494;2023-04-15T13:01:02;8.73;;;0.83;;
78873;SDS011;68250;43.514;1.494;2023-04-15T13:03:28;4.28;;;0.70;;
78873;SDS011;68250;43.514;1.494;2023-04-15T13:05:53;4.83;;;0.50;;
78873;SDS011;68250;43.514;1.494;2023-04-15T13:08:19;6.50;;;0.60;;
78873;SDS011;68250;43.514;1.494;2023-04-15T13:10:45;4.32;;;0.60;;
78873;SDS011;68250;43.514;1.494;2023-04-15T13:13:10;4.97;;;0.70;;
78873;SDS011;68250;43.514;1.494;2023-04-15T13:15:36;5.15;;;0.50;;
78873;SDS011;68250;43.514;1.494;2023-04-15T13:18:02;6.43;;;0.70;;
78873;SDS011;68250;43.514;1.494;2023-04-15T13:20:30;4.50;;;0.60;;
78873;SDS011;68250;43.514;1.494;2023-04-15T13:22:56;6.15;;;0.65;;
78873;SDS011;68250;43.514;1.494;2023-04-15T13:25:21;4.10;;;0.60;;
78873;SDS011;68250;43.514;1.494;2023-04-15T13:27:47;5.63;;;0.60;;
78873;SDS011;68250;43.514;1.494;2023-04-15T13:30:12;6.80;;;0.50;;
78873;SDS011;68250;43.514;1.494;2023-04-15T13:32:38;3.90;;;0.68;;
78873;SDS011;68250;43.514;1.494;2023-04-15T13:35:03;5.80;;;0.80;;
78873;SDS011;68250;43.514;1.494;2023-04-15T13:37:29;4.53;;;0.55;;
78873;SDS011;68250;43.514;1.494;2023-04-15T13:39:55;7.23;;;0.77;;
78873;SDS011;68250;43.514;1.494;2023-04-15T13:42:21;5.47;;;0.60;;
78873;SDS011;68250;43.514;1.494;2023-04-15T13:44:48;4.63;;;0.50;;
78873;SDS011;68250;43.514;1.494;2023-04-15T13:47:15;7.25;;;0.65;;
78873;SDS011;68250;43.514;1.494;2023-04-15T13:49:42;6.27;;;0.80;;
78873;SDS011;68250;43.514;1.494;2023-04-15T13:52:07;8.05;;;0.93;;
78873;SDS011;68250;43.514;1.494;2023-04-15T13:54:33;8.35;;;1.00;;
78873;SDS011;68250;43.514;1.494;2023-04-15T13:56:59;5.22;;;0.85;;
78873;SDS011;68250;43.514;1.494;2023-04-15T13:59:26;6.28;;;0.77;;
78873;SDS011;68250;43.514;1.494;2023-04-15T14:01:51;5.03;;;0.63;;
78873;SDS011;68250;43.514;1.494;2023-04-15T14:04:17;5.35;;;0.70;;
78873;SDS011;68250;43.514;1.494;2023-04-15T14:06:42;5.38;;;0.90;;
78873;SDS011;68250;43.514;1.494;2023-04-15T14:09:08;4.63;;;0.50;;
78873;SDS011;68250;43.514;1.494;2023-04-15T14:11:34;5.35;;;0.63;;
78873;SDS011;68250;43.514;1.494;2023-04-15T14:14:01;4.85;;;0.55;;
78873;SDS011;68250;43.514;1.494;2023-04-15T14:16:26;6.17;;;0.73;;
78873;SDS011;68250;43.514;1.494;2023-04-15T14:18:52;8.73;;;2.25;;
78873;SDS011;68250;43.514;1.494;2023-04-15T14:21:17;8.00;;;1.13;;
78873;SDS011;68250;43.514;1.494;2023-04-15T14:23:43;5.40;;;1.30;;
78873;SDS011;68250;43.514;1.494;2023-04-15T14:26:08;7.03;;;0.68;;
78873;SDS011;68250;43.514;1.494;2023-04-15T14:28:34;13.67;;;4.83;;
78873;SDS011;68250;43.514;1.494;2023-04-15T14:31:00;8.98;;;3.20;;
78873;SDS011;68250;43.514;1.494;2023-04-15T14:33:25;4.68;;;1.63;;
78873;SDS011;68250;43.514;1.494;2023-04-15T14:35:51;7.67;;;2.00;;
78873;SDS011;68250;43.514;1.494;2023-04-15T14:38:16;12.50;;;4.00;;
78873;SDS011;68250;43.514;1.494;2023-04-15T14:40:42;11.37;;;3.00;;
78873;SDS011;68250;43.514;1.494;2023-04-15T14:43:08;6.80;;;2.22;;
78873;SDS011;68250;43.514;1.494;2023-04-15T14:45:34;7.67;;;2.87;;
78873;SDS011;68250;43.514;1.494;2023-04-15T14:48:00;17.52;;;6.75;;
78873;SDS011;68250;43.514;1.494;2023-04-15T14:50:26;22.25;;;8.10;;
78873;SDS011;68250;43.514;1.494;2023-04-15T14:52:51;15.53;;;5.30;;
78873;SDS011;68250;43.514;1.494;2023-04-15T14:55:17;7.40;;;1.97;;